createdAt,value
2018-11-21T00:00:35.006Z,78.60
2018-11-21T00:03:03.513Z,78.50
2018-11-21T00:05:32.135Z,78.30
2018-11-21T00:08:00.602Z,78.00
2018-11-21T00:10:29.109Z,77.90
2018-11-21T00:12:58.122Z,77.90
2018-11-21T00:15:26.614Z,78.00
2018-11-21T00:17:55.110Z,78.00
2018-11-21T00:20:23.668Z,77.90
2018-11-21T00:22:52.145Z,78.00
2018-11-21T00:25:20.600Z,78.00
2018-11-21T00:27:49.185Z,77.90
2018-11-21T00:30:17.661Z,77.90
2018-11-21T00:32:46.142Z,77.70
2018-11-21T00:35:14.718Z,77.50
2018-11-21T00:37:43.180Z,77.40
2018-11-21T00:40:13.305Z,77.30
2018-11-21T00:42:46.655Z,77.20
2018-11-21T00:45:10.842Z,77.00
2018-11-21T00:47:39.292Z,77.60
2018-11-21T00:50:07.998Z,76.80
2018-11-21T00:52:36.612Z,76.70
2018-11-21T00:55:05.533Z,76.70
2018-11-21T00:57:34.076Z,76.50
2018-11-21T01:00:02.572Z,76.30
2018-11-21T01:02:31.080Z,76.20
2018-11-21T01:04:59.666Z,76.10
2018-11-21T01:07:28.086Z,76.20
2018-11-21T01:09:56.582Z,76.30
2018-11-21T01:12:25.132Z,76.40
2018-11-21T01:14:53.625Z,76.40
2018-11-21T01:17:22.117Z,76.30
2018-11-21T01:19:50.687Z,76.10
2018-11-21T01:22:19.200Z,75.60
2018-11-21T01:24:47.697Z,75.70
2018-11-21T01:27:16.256Z,75.80
2018-11-21T01:29:44.773Z,76.00
2018-11-21T01:32:13.266Z,76.20
2018-11-21T01:34:41.814Z,76.50
2018-11-21T01:37:10.330Z,76.50
2018-11-21T01:39:38.824Z,76.50
2018-11-21T01:42:07.400Z,76.60
2018-11-21T01:44:35.941Z,76.60
2018-11-21T01:47:04.498Z,76.60
2018-11-21T01:49:33.027Z,76.40
2018-11-21T01:52:01.519Z,76.50
2018-11-21T01:54:30.051Z,76.40
2018-11-21T01:56:58.616Z,76.40
2018-11-21T01:59:27.135Z,76.30
2018-11-21T02:01:55.646Z,76.30
2018-11-21T02:04:24.182Z,76.40
2018-11-21T02:06:52.697Z,76.40
2018-11-21T02:09:21.187Z,76.50
2018-11-21T02:11:49.739Z,76.50
2018-11-21T02:14:18.217Z,77.30
2018-11-21T02:16:46.741Z,76.50
2018-11-21T02:19:15.287Z,76.60
2018-11-21T02:21:43.807Z,76.50
2018-11-21T02:24:12.331Z,76.60
2018-11-21T02:26:40.894Z,76.70
2018-11-21T02:29:09.427Z,76.70
2018-11-21T02:31:37.958Z,77.70
2018-11-21T02:34:06.842Z,77.00
2018-11-21T02:36:35.364Z,76.90
2018-11-21T02:39:05.153Z,77.00
2018-11-21T02:41:33.690Z,76.90
2018-11-21T02:44:02.204Z,76.70
2018-11-21T02:46:30.713Z,76.60
2018-11-21T02:48:59.359Z,76.60
2018-11-21T02:51:27.844Z,76.50
2018-11-21T02:53:56.341Z,76.50
2018-11-21T02:57:02.967Z,76.60
2018-11-21T02:59:32.027Z,76.50
2018-11-21T03:02:00.541Z,76.50
2018-11-21T03:04:29.100Z,76.50
2018-11-21T03:06:57.621Z,76.60
2018-11-21T03:09:26.108Z,76.50
2018-11-21T03:11:54.704Z,76.80
2018-11-21T03:14:23.254Z,77.10
2018-11-21T03:16:51.751Z,77.20
2018-11-21T03:19:20.618Z,77.00
2018-11-21T03:21:49.112Z,76.70
2018-11-21T03:24:17.655Z,76.60
2018-11-21T03:26:46.183Z,76.50
2018-11-21T03:29:14.882Z,76.20
2018-11-21T03:31:43.392Z,76.20
2018-11-21T03:34:11.930Z,76.10
2018-11-21T03:36:47.196Z,75.90
2018-11-21T03:39:16.235Z,75.70
2018-11-21T03:41:45.096Z,75.70
2018-11-21T03:44:13.913Z,75.60
2018-11-21T03:46:43.024Z,75.40
2018-11-21T03:49:11.541Z,75.40
2018-11-21T03:51:40.218Z,75.40
2018-11-21T03:54:09.067Z,75.50
2018-11-21T03:56:38.008Z,76.00
2018-11-21T03:59:06.797Z,75.20
2018-11-21T04:01:35.353Z,75.10
2018-11-21T04:04:03.844Z,75.10
2018-11-21T04:06:32.415Z,75.10
2018-11-21T04:09:00.959Z,75.10
2018-11-21T04:11:29.446Z,75.10
2018-11-21T04:13:57.931Z,75.00
2018-11-21T04:16:26.467Z,74.90
2018-11-21T04:18:55.954Z,75.00
2018-11-21T04:21:24.445Z,75.10
2018-11-21T04:23:52.981Z,75.00
2018-11-21T04:26:21.450Z,75.20
2018-11-21T04:28:50.033Z,75.10
2018-11-21T04:31:18.555Z,75.00
2018-11-21T04:33:47.053Z,75.10
2018-11-21T04:36:15.546Z,75.20
2018-11-21T04:38:44.103Z,75.40
2018-11-21T04:41:12.598Z,75.30
2018-11-21T04:43:41.102Z,75.20
2018-11-21T04:46:09.664Z,74.90
2018-11-21T04:48:38.133Z,74.70
2018-11-21T04:51:06.634Z,74.70
2018-11-21T04:53:35.170Z,74.70
2018-11-21T04:56:03.635Z,74.80
2018-11-21T04:58:32.179Z,74.80
2018-11-21T05:01:00.728Z,74.80
2018-11-21T05:03:29.231Z,74.70
2018-11-21T05:05:57.753Z,74.70
2018-11-21T05:08:26.330Z,74.60
2018-11-21T05:10:54.818Z,74.60
2018-11-21T05:13:23.303Z,74.60
2018-11-21T05:15:51.850Z,74.70
2018-11-21T05:18:20.332Z,74.80
2018-11-21T05:20:48.858Z,74.90
2018-11-21T05:23:17.409Z,75.00
2018-11-21T05:25:45.915Z,75.00
2018-11-21T05:28:14.430Z,75.00
2018-11-21T05:30:42.995Z,75.00
2018-11-21T05:33:11.462Z,74.90
2018-11-21T05:35:39.957Z,75.00
2018-11-21T05:38:08.490Z,75.00
2018-11-21T05:40:37.020Z,74.90
2018-11-21T05:43:05.821Z,74.90
2018-11-21T05:45:34.370Z,74.80
2018-11-21T05:48:02.927Z,74.80
2018-11-21T05:50:31.408Z,74.70
2018-11-21T05:52:59.998Z,74.70
2018-11-21T05:55:28.497Z,74.70
2018-11-21T05:57:56.999Z,74.70
2018-11-21T06:00:25.558Z,74.60
2018-11-21T06:02:54.095Z,74.60
2018-11-21T06:05:22.602Z,74.70
2018-11-21T06:07:51.242Z,75.10
2018-11-21T06:10:19.718Z,74.70
2018-11-21T06:12:48.197Z,74.70
2018-11-21T06:15:16.736Z,74.70
2018-11-21T06:17:48.348Z,74.50
2018-11-21T06:20:14.702Z,74.60
2018-11-21T06:22:43.849Z,74.70
2018-11-21T06:25:12.975Z,74.90
2018-11-21T06:27:41.595Z,75.00
2018-11-21T06:30:11.863Z,74.90
2018-11-21T06:32:40.691Z,74.90
2018-11-21T06:35:10.302Z,74.90
2018-11-21T06:37:39.324Z,74.70
2018-11-21T06:40:10.425Z,74.80
2018-11-21T06:42:39.101Z,74.80
2018-11-21T06:45:09.482Z,74.80
2018-11-21T06:47:38.073Z,74.80
2018-11-21T06:50:07.045Z,74.80
2018-11-21T06:52:35.602Z,74.90
2018-11-21T06:55:04.171Z,74.80
2018-11-21T06:57:32.652Z,74.70
2018-11-21T07:00:01.162Z,74.80
2018-11-21T07:02:29.652Z,74.70
2018-11-21T07:04:58.099Z,74.80
2018-11-21T07:07:26.627Z,74.70
2018-11-21T07:09:55.108Z,74.80
2018-11-21T07:12:23.664Z,74.90
2018-11-21T07:14:52.192Z,75.00
2018-11-21T07:17:20.760Z,75.10
2018-11-21T07:19:49.268Z,75.00
2018-11-21T07:22:17.831Z,75.00
2018-11-21T07:24:46.343Z,75.10
2018-11-21T07:27:14.826Z,75.40
2018-11-21T07:29:43.394Z,75.70
2018-11-21T07:32:12.018Z,75.80
2018-11-21T07:34:40.827Z,75.90
2018-11-21T07:37:09.373Z,75.80
2018-11-21T07:39:37.882Z,75.90
2018-11-21T07:42:06.482Z,76.00
2018-11-21T07:44:35.043Z,76.00
2018-11-21T07:47:03.819Z,76.00
2018-11-21T07:49:32.308Z,76.00
2018-11-21T07:52:00.835Z,76.00
2018-11-21T07:54:29.356Z,76.10
2018-11-21T07:57:27.220Z,76.30
2018-11-21T08:00:53.988Z,76.40
2018-11-21T08:03:23.640Z,76.30
2018-11-21T08:05:54.603Z,76.10
2018-11-21T08:08:57.333Z,76.20
2018-11-21T08:11:50.859Z,76.40
2018-11-21T08:14:36.838Z,76.20
2018-11-21T08:17:23.479Z,75.80
2018-11-21T08:20:26.263Z,75.80
2018-11-21T08:23:12.159Z,75.50
2018-11-21T08:25:53.893Z,74.60
2018-11-21T08:28:21.605Z,74.10
2018-11-21T08:30:51.214Z,74.10
2018-11-21T08:33:20.146Z,74.10
2018-11-21T08:35:48.610Z,74.10
2018-11-21T08:38:17.554Z,74.20
2018-11-21T08:40:46.204Z,74.70
2018-11-21T08:43:14.698Z,74.50
2018-11-21T08:45:43.203Z,75.10
2018-11-21T08:48:12.343Z,75.10
2018-11-21T08:50:40.839Z,74.10
2018-11-21T08:53:09.323Z,74.10
2018-11-21T08:55:38.110Z,74.20
2018-11-21T08:58:07.460Z,74.50
2018-11-21T09:00:36.026Z,74.70
2018-11-21T09:03:05.193Z,75.00
2018-11-21T09:05:33.688Z,75.40
2018-11-21T09:08:02.192Z,75.70
2018-11-21T09:12:58.666Z,75.70
2018-11-21T09:15:27.171Z,75.70
2018-11-21T09:17:55.738Z,75.00
2018-11-21T09:20:24.259Z,75.10
2018-11-21T09:22:52.739Z,75.60
2018-11-21T09:25:21.274Z,75.90
2018-11-21T09:27:49.760Z,75.60
2018-11-21T09:30:19.442Z,75.90
2018-11-21T09:32:49.489Z,75.50
2018-11-21T09:35:18.746Z,75.30
2018-11-21T09:37:47.277Z,75.20
2018-11-21T09:40:17.616Z,75.20
2018-11-21T09:42:47.352Z,75.00
2018-11-21T09:45:17.394Z,74.60
2018-11-21T09:47:46.049Z,74.90
2018-11-21T09:50:19.678Z,75.60
2018-11-21T09:52:50.385Z,76.00
2018-11-21T09:55:17.086Z,76.60
2018-11-21T09:57:45.558Z,76.80
2018-11-21T10:00:51.932Z,76.80
2018-11-21T10:03:25.381Z,77.00
2018-11-21T10:05:56.569Z,76.90
2018-11-21T10:08:41.183Z,77.30
2018-11-21T10:11:11.168Z,77.20
2018-11-21T10:13:40.262Z,77.10
2018-11-21T10:16:09.634Z,76.90
2018-11-21T10:18:40.082Z,76.20
2018-11-21T10:21:11.090Z,76.40
2018-11-21T10:23:40.226Z,75.60
2018-11-21T10:26:09.430Z,74.80
2018-11-21T10:28:38.882Z,75.10
2018-11-21T10:31:07.983Z,74.50
2018-11-21T10:33:37.130Z,74.80
2018-11-21T10:36:06.273Z,74.70
2018-11-21T10:38:35.347Z,73.50
2018-11-21T10:41:04.645Z,72.50
2018-11-21T10:43:34.790Z,73.00
2018-11-21T10:46:03.864Z,73.90
2018-11-21T10:48:32.383Z,73.70
2018-11-21T10:51:00.900Z,73.70
2018-11-21T10:53:29.375Z,73.80
2018-11-21T10:55:57.870Z,73.90
2018-11-21T10:58:26.432Z,74.30
2018-11-21T11:01:12.881Z,74.30
2018-11-21T11:03:55.787Z,74.70
2018-11-21T11:06:41.854Z,74.90
2018-11-21T11:09:29.927Z,74.50
2018-11-21T11:12:27.021Z,74.50
2018-11-21T11:15:13.083Z,74.20
2018-11-21T11:18:00.743Z,72.50
2018-11-21T11:20:47.088Z,73.00
2018-11-21T11:23:37.868Z,72.90
2018-11-21T11:26:43.721Z,73.00
2018-11-21T11:29:30.150Z,73.40
2018-11-21T11:32:23.728Z,72.90
2018-11-21T11:35:20.312Z,72.60
2018-11-21T11:38:10.573Z,72.70
2018-11-21T11:41:10.630Z,73.50
2018-11-21T11:44:06.489Z,73.50
2018-11-21T11:47:06.007Z,73.60
2018-11-21T11:49:56.331Z,73.30
2018-11-21T11:52:53.161Z,73.40
2018-11-21T11:55:39.171Z,73.10
2018-11-21T11:58:25.333Z,74.70
2018-11-21T12:01:01.290Z,74.60
2018-11-21T12:03:47.596Z,74.80
2018-11-21T12:06:33.730Z,75.20
2018-11-21T12:09:19.847Z,75.00
2018-11-21T12:12:05.979Z,74.20
2018-11-21T12:15:05.764Z,74.30
2018-11-21T12:17:49.306Z,74.30
2018-11-21T12:20:55.139Z,73.80
2018-11-21T12:23:41.335Z,74.50
2018-11-21T12:26:31.957Z,75.40
2018-11-21T12:29:17.980Z,75.70
2018-11-21T12:32:05.674Z,76.20
2018-11-21T12:34:51.645Z,75.80
2018-11-21T12:37:44.881Z,75.50
2018-11-21T12:40:32.490Z,75.80
2018-11-21T12:43:17.790Z,75.80
2018-11-21T12:46:08.002Z,75.50
2018-11-21T12:48:54.480Z,75.70
2018-11-21T12:51:40.809Z,76.00
2018-11-21T12:54:24.719Z,76.00
2018-11-21T12:57:18.305Z,75.60
2018-11-21T13:00:11.846Z,75.80
2018-11-21T13:02:57.993Z,76.00
2018-11-21T13:05:35.576Z,75.00
2018-11-21T13:08:16.401Z,75.40
2018-11-21T13:11:04.082Z,75.20
2018-11-21T13:13:50.335Z,75.10
2018-11-21T13:16:47.042Z,75.10
2018-11-21T13:19:33.494Z,75.30
2018-11-21T13:22:20.099Z,75.50
2018-11-21T13:25:10.314Z,75.60
2018-11-21T13:28:00.910Z,75.70
2018-11-21T13:30:46.996Z,75.80
2018-11-21T13:33:33.163Z,76.00
2018-11-21T13:36:19.169Z,76.10
2018-11-21T13:39:20.646Z,75.30
2018-11-21T13:42:06.945Z,75.20
2018-11-21T13:45:06.451Z,75.20
2018-11-21T13:47:50.933Z,75.20
2018-11-21T13:50:41.255Z,75.00
2018-11-21T13:53:24.472Z,75.00
2018-11-21T13:55:53.008Z,74.80
2018-11-21T13:58:21.499Z,74.80
2018-11-21T14:00:49.992Z,74.70
2018-11-21T14:03:18.519Z,74.60
2018-11-21T14:05:47.009Z,74.90
2018-11-21T14:08:15.496Z,75.20
2018-11-21T14:10:44.056Z,75.30
2018-11-21T14:13:12.626Z,74.60
2018-11-21T14:15:41.135Z,74.30
2018-11-21T14:18:09.680Z,74.30
2018-11-21T14:20:38.170Z,74.70
2018-11-21T14:23:06.642Z,74.70
2018-11-21T14:25:35.189Z,74.50
2018-11-21T14:28:03.716Z,74.80
2018-11-21T14:30:32.215Z,75.10
2018-11-21T14:33:00.752Z,75.30
2018-11-21T14:35:29.220Z,75.30
2018-11-21T14:37:57.726Z,75.20
2018-11-21T14:40:27.063Z,75.00
2018-11-21T14:42:54.841Z,75.20
2018-11-21T14:45:23.330Z,75.20
2018-11-21T14:47:53.088Z,75.10
2018-11-21T14:50:23.753Z,75.00
2018-11-21T14:52:52.355Z,75.10
2018-11-21T14:55:20.897Z,75.20
2018-11-21T14:57:49.383Z,75.00
2018-11-21T15:00:19.176Z,74.90
2018-11-21T15:02:47.797Z,74.80
2018-11-21T15:05:16.356Z,75.00
2018-11-21T15:07:45.639Z,75.00
2018-11-21T15:10:14.564Z,75.00
2018-11-21T15:12:43.066Z,75.00
2018-11-21T15:15:14.441Z,75.00
2018-11-21T15:17:43.024Z,75.10
2018-11-21T15:20:13.971Z,75.00
2018-11-21T15:22:42.508Z,74.60
2018-11-21T15:25:13.227Z,75.20
2018-11-21T15:27:41.974Z,75.30
2018-11-21T15:30:18.785Z,75.50
2018-11-21T15:32:47.305Z,75.70
2018-11-21T15:35:15.870Z,76.20
2018-11-21T15:37:44.840Z,76.60
2018-11-21T15:40:18.005Z,76.80
2018-11-21T15:42:46.519Z,76.70
2018-11-21T15:45:16.791Z,76.70
2018-11-21T15:47:47.409Z,76.70
2018-11-21T15:50:16.827Z,76.70
2018-11-21T15:52:45.527Z,76.80
2018-11-21T15:55:15.350Z,76.80
2018-11-21T15:57:43.809Z,76.60
2018-11-21T16:00:20.779Z,76.80
2018-11-21T16:02:50.316Z,76.80
2018-11-21T16:05:19.185Z,76.50
2018-11-21T16:07:48.039Z,76.40
2018-11-21T16:10:18.880Z,76.40
2018-11-21T16:12:46.488Z,76.60
2018-11-21T16:15:17.982Z,76.80
2018-11-21T16:17:46.559Z,76.90
2018-11-21T16:20:15.923Z,76.90
2018-11-21T16:22:44.464Z,76.90
2018-11-21T16:25:14.727Z,77.00
2018-11-21T16:27:44.029Z,77.10
2018-11-21T16:30:14.905Z,77.30
2018-11-21T16:32:43.742Z,77.40
2018-11-21T16:35:12.628Z,77.20
2018-11-21T16:37:41.769Z,77.70
2018-11-21T16:40:12.701Z,76.90
2018-11-21T16:42:41.545Z,77.00
2018-11-21T16:45:12.144Z,77.50
2018-11-21T16:47:40.629Z,77.60
2018-11-21T16:50:11.502Z,77.70
2018-11-21T16:52:40.067Z,77.70
2018-11-21T16:55:10.390Z,77.60
2018-11-21T16:57:38.918Z,77.50
2018-11-21T17:00:10.826Z,77.70
